BGKK

Kulusuk Airport

Airport
ICAO code
BGKK
IATA Code
KUS
Summary
ICAO Region
NAT
ICAO Territory
Location

Kulusuk Island, Sermersooq

Serving
Kulusuk
Elevation
131 ft
Coordinates
65° 34' 25" N , 37° 7' 25" W
KCC
ET
Airport CFIT
Altimeter Temperature Error Correction
Metar
Observation
BGKK 081550Z 25005KT 200V290 5000 VCFG BKN005 05/04 Q0997
Station
Kulusuk Lufthavn
Date/Time
2022-08-08 15:50:00
Wind direction
250°
Wind speed
05 kts
Lowest cloud amount
broken clouds
Temperature
5°C
Dew point
4°C
Humidity
93%
QNH
997 hPa
Weather condition
n/a

Description

Kulusuk Airport is an airport in Kulusuk, a settlement on an island of the same name off the shore of the North Atlantic in the Sermersooq municipality in southeastern Greenland.

Climatology

Tundra Climate (Köppen climate classification ET) - average temperature below 10°C in all twelve months of the year with very little precipitation.

Runways

Designator Length Width Surface Rops
11/29 1199 0 UNK No/No

Airport map

Aerial View

SKYbrary Partners:

Safety knowledge contributed by: